createdAt,value
2017-07-02T00:01:23.748Z,60.00
2017-07-02T00:03:53.540Z,60.93
2017-07-02T00:06:22.233Z,65.07
2017-07-02T00:08:51.127Z,66.47
2017-07-02T00:11:20.073Z,66.03
2017-07-02T00:13:49.722Z,67.33
2017-07-02T00:16:18.613Z,63.47
2017-07-02T00:31:35.401Z,63.67
2017-07-02T00:34:04.101Z,63.10
2017-07-02T00:36:32.901Z,65.33
2017-07-02T00:39:01.850Z,65.90
2017-07-02T00:41:31.181Z,65.60
2017-07-02T00:43:59.937Z,66.73
2017-07-02T00:46:28.881Z,66.27
2017-07-02T00:48:57.628Z,68.30
2017-07-02T00:51:25.821Z,69.03
2017-07-02T00:53:54.638Z,68.10
2017-07-02T00:56:22.742Z,69.50
2017-07-02T00:58:51.386Z,63.80
2017-07-02T01:01:20.321Z,65.27
2017-07-02T01:03:48.384Z,74.97
2017-07-02T01:06:17.137Z,67.40
2017-07-02T01:08:46.035Z,60.13
2017-07-02T01:11:14.730Z,60.03
2017-07-02T01:13:43.673Z,61.20
2017-07-02T01:16:13.334Z,60.23
2017-07-02T01:18:42.123Z,63.13
2017-07-02T01:21:10.809Z,62.37
2017-07-02T01:23:39.520Z,74.33
2017-07-02T01:26:08.119Z,68.47
2017-07-02T01:28:36.868Z,57.37
2017-07-02T01:31:05.761Z,71.37
2017-07-02T01:33:34.609Z,72.73
2017-07-02T01:36:04.045Z,59.60
2017-07-02T01:38:32.941Z,64.70
2017-07-02T01:41:01.134Z,60.00
2017-07-02T01:43:29.802Z,57.47
2017-07-02T01:45:58.113Z,61.83
2017-07-02T01:48:26.985Z,58.27
2017-07-02T01:50:55.790Z,70.93
2017-07-02T01:53:24.432Z,64.53
2017-07-02T01:55:53.233Z,75.93
2017-07-02T01:58:21.929Z,59.80
2017-07-02T02:01:02.420Z,57.00
2017-07-02T02:03:31.909Z,59.23
2017-07-02T02:06:00.711Z,63.80
2017-07-02T02:08:29.470Z,64.00
2017-07-02T02:10:57.680Z,60.30
2017-07-02T02:13:26.558Z,62.90
2017-07-02T02:15:55.313Z,68.97
2017-07-02T02:18:24.028Z,61.67
2017-07-02T02:20:52.806Z,66.43
2017-07-02T02:23:21.593Z,78.80
2017-07-02T02:25:50.401Z,75.60
2017-07-02T02:28:19.245Z,61.17
2017-07-02T02:30:48.885Z,61.60
2017-07-02T02:33:17.574Z,66.00
2017-07-02T02:35:46.377Z,68.50
2017-07-02T02:38:15.369Z,65.83
2017-07-02T02:40:43.585Z,74.87
2017-07-02T02:43:12.221Z,66.20
2017-07-02T02:45:41.113Z,72.30
2017-07-02T02:48:09.302Z,70.47
2017-07-02T02:50:37.978Z,72.43
2017-07-02T02:53:06.301Z,85.50
2017-07-02T02:55:34.885Z,70.93
2017-07-02T02:58:03.057Z,76.97
2017-07-02T03:00:31.397Z,63.97
2017-07-02T03:03:00.077Z,82.93
2017-07-02T03:05:28.781Z,73.47
2017-07-02T03:07:57.876Z,63.47
2017-07-02T03:10:26.116Z,70.30
2017-07-02T03:12:54.246Z,105.93
2017-07-02T03:15:23.220Z,83.63
2017-07-02T03:17:52.117Z,81.37
2017-07-02T03:20:20.697Z,72.90
2017-07-02T03:22:49.805Z,88.73
2017-07-02T03:25:18.522Z,91.53
2017-07-02T03:27:47.274Z,118.03
2017-07-02T03:30:16.271Z,86.83
2017-07-02T03:32:45.061Z,94.07
2017-07-02T03:35:13.695Z,97.27
2017-07-02T03:37:43.457Z,88.80
2017-07-02T03:40:12.305Z,99.97
2017-07-02T03:42:41.740Z,82.17
2017-07-02T03:45:10.635Z,83.53
2017-07-02T03:47:39.433Z,89.73
2017-07-02T03:50:08.383Z,78.17
2017-07-02T03:52:38.025Z,99.00
2017-07-02T03:55:06.709Z,69.43
2017-07-02T03:57:35.472Z,79.77
2017-07-02T04:00:03.788Z,70.10
2017-07-02T04:02:32.021Z,87.80
2017-07-02T04:05:01.513Z,77.03
2017-07-02T04:07:30.348Z,71.17
2017-07-02T04:09:59.361Z,83.83
2017-07-02T04:12:27.533Z,80.93
2017-07-02T04:14:56.401Z,67.00
2017-07-02T04:17:25.104Z,94.37
2017-07-02T04:19:53.801Z,78.90
2017-07-02T04:22:23.523Z,79.37
2017-07-02T04:24:52.401Z,69.67
2017-07-02T04:27:21.182Z,82.63
2017-07-02T04:29:50.077Z,64.93
2017-07-02T04:32:18.729Z,54.97
2017-07-02T04:34:48.175Z,77.33
2017-07-02T04:37:17.056Z,77.50
2017-07-02T04:39:45.861Z,64.93
2017-07-02T04:42:14.654Z,57.60
2017-07-02T04:44:43.446Z,72.87
2017-07-02T04:47:12.053Z,68.17
2017-07-02T04:49:40.801Z,72.43
2017-07-02T04:52:09.697Z,56.23
2017-07-02T04:54:38.597Z,69.17
2017-07-02T04:57:07.442Z,56.73
2017-07-02T04:59:36.985Z,60.80
2017-07-02T05:02:05.882Z,67.67
2017-07-02T05:04:34.678Z,63.17
2017-07-02T05:07:02.970Z,53.23
2017-07-02T05:09:31.577Z,69.93
2017-07-02T05:12:00.330Z,59.50
2017-07-02T05:14:29.429Z,59.27
2017-07-02T05:16:58.382Z,76.53
2017-07-02T05:19:27.815Z,50.13
2017-07-02T05:21:56.705Z,47.60
2017-07-02T05:24:25.504Z,58.53
2017-07-02T05:26:54.453Z,55.17
2017-07-02T05:29:23.892Z,51.47
2017-07-02T05:31:52.696Z,61.33
2017-07-02T05:34:20.853Z,60.33
2017-07-02T05:36:49.593Z,52.03
2017-07-02T05:39:18.233Z,50.20
2017-07-02T05:41:47.090Z,48.33
2017-07-02T05:44:15.326Z,49.30
2017-07-02T05:46:43.981Z,61.27
2017-07-02T05:49:12.789Z,45.25
2017-07-02T05:51:41.872Z,48.53
2017-07-02T05:54:16.893Z,35.63
2017-07-02T05:56:45.668Z,34.05
2017-07-02T05:59:13.873Z,53.75
2017-07-02T06:01:42.678Z,36.03
2017-07-02T06:04:11.573Z,37.78
2017-07-02T06:06:40.461Z,38.45
2017-07-02T06:09:09.205Z,37.75
2017-07-02T06:11:38.751Z,36.55
2017-07-02T06:14:07.446Z,42.15
2017-07-02T06:16:36.237Z,29.67
2017-07-02T06:19:05.128Z,51.65
2017-07-02T06:21:33.705Z,31.80
2017-07-02T06:24:02.381Z,41.25
2017-07-02T06:26:31.285Z,39.33
2017-07-02T06:29:00.177Z,45.77
2017-07-02T06:31:29.176Z,27.15
2017-07-02T06:33:57.501Z,58.40
2017-07-02T06:36:26.178Z,37.97
2017-07-02T06:38:55.041Z,31.52
2017-07-02T06:41:23.913Z,46.72
2017-07-02T06:43:52.717Z,33.47
2017-07-02T06:46:21.561Z,33.40
2017-07-02T06:48:51.146Z,33.40
2017-07-02T06:51:19.905Z,28.90
2017-07-02T06:53:48.113Z,29.85
2017-07-02T06:56:16.462Z,38.85
2017-07-02T06:58:44.681Z,27.83
2017-07-02T07:01:13.256Z,30.60
2017-07-02T07:03:42.100Z,34.67
2017-07-02T07:06:11.005Z,30.83
2017-07-02T07:08:39.794Z,33.65
2017-07-02T07:11:08.789Z,29.60
2017-07-02T07:13:37.637Z,25.40
2017-07-02T07:16:06.973Z,28.35
2017-07-02T07:18:35.872Z,26.90
2017-07-02T07:21:04.005Z,23.73
2017-07-02T07:23:33.558Z,29.52
2017-07-02T07:26:02.300Z,26.00
2017-07-02T07:28:31.958Z,35.33
2017-07-02T07:31:00.946Z,25.20
2017-07-02T07:33:30.046Z,21.05
2017-07-02T07:35:58.785Z,21.37
2017-07-02T07:38:28.231Z,26.02
2017-07-02T07:40:57.114Z,39.40
2017-07-02T07:43:25.920Z,35.08
2017-07-02T07:45:54.610Z,32.15
2017-07-02T07:48:23.301Z,40.50
2017-07-02T07:50:51.969Z,37.25
2017-07-02T07:53:20.769Z,37.75
2017-07-02T07:55:49.861Z,49.20
2017-07-02T07:58:18.849Z,43.50
2017-07-02T08:00:47.849Z,48.60
2017-07-02T08:03:16.853Z,52.10
2017-07-02T08:05:45.845Z,57.53
2017-07-02T08:08:14.830Z,49.90
2017-07-02T08:10:43.938Z,42.03
2017-07-02T08:13:12.885Z,49.80
2017-07-02T08:15:43.261Z,54.80
2017-07-02T08:18:12.165Z,46.27
2017-07-02T08:20:40.747Z,57.43
2017-07-02T08:23:09.387Z,52.87
2017-07-02T08:25:38.871Z,50.27
2017-07-02T08:28:06.963Z,50.87
2017-07-02T08:30:36.372Z,53.87
2017-07-02T08:33:06.009Z,40.83
2017-07-02T08:35:34.603Z,43.17
2017-07-02T08:38:03.326Z,55.17
2017-07-02T08:40:32.467Z,45.43
2017-07-02T08:43:01.271Z,42.20
2017-07-02T08:45:30.267Z,44.50
2017-07-02T08:47:59.307Z,42.60
2017-07-02T08:50:27.436Z,45.70
2017-07-02T08:52:56.194Z,41.07
2017-07-02T08:55:25.675Z,42.83
2017-07-02T08:57:54.388Z,44.57
2017-07-02T09:00:22.563Z,43.10
2017-07-02T09:02:52.179Z,45.97
2017-07-02T09:05:20.939Z,43.73
2017-07-02T09:07:49.783Z,42.00
2017-07-02T09:10:18.823Z,47.40
2017-07-02T09:12:47.327Z,49.50
2017-07-02T09:15:15.499Z,48.70
2017-07-02T09:17:45.018Z,47.53
2017-07-02T09:20:13.167Z,43.80
2017-07-02T09:22:41.707Z,45.77
2017-07-02T09:25:10.598Z,42.47
2017-07-02T09:27:39.454Z,42.73
2017-07-02T09:30:08.800Z,41.47
2017-07-02T09:32:37.748Z,43.23
2017-07-02T09:35:07.151Z,41.73
2017-07-02T09:37:36.943Z,41.87
2017-07-02T09:40:05.839Z,50.83
2017-07-02T09:42:34.003Z,53.53
2017-07-02T09:45:02.742Z,40.63
2017-07-02T09:47:31.631Z,40.93
2017-07-02T09:50:00.582Z,43.20
2017-07-02T09:52:28.722Z,47.27
2017-07-02T09:54:57.043Z,41.20
2017-07-02T09:57:25.883Z,41.27
2017-07-02T09:59:54.691Z,38.87
2017-07-02T10:02:23.335Z,42.27
2017-07-02T10:04:52.911Z,45.73
2017-07-02T10:07:21.186Z,42.93
2017-07-02T10:09:50.103Z,48.60
2017-07-02T10:12:18.303Z,42.77
2017-07-02T10:14:46.858Z,41.40
2017-07-02T10:17:16.555Z,42.00
2017-07-02T10:19:45.125Z,41.67
2017-07-02T10:22:13.683Z,37.90
2017-07-02T10:24:42.643Z,37.33
2017-07-02T10:27:11.939Z,44.73
2017-07-02T10:29:41.479Z,38.20
2017-07-02T10:32:09.723Z,37.90
2017-07-02T10:34:39.023Z,37.37
2017-07-02T10:37:07.339Z,37.47
2017-07-02T10:39:36.210Z,37.90
2017-07-02T10:42:05.023Z,39.33
2017-07-02T10:44:33.908Z,43.73
2017-07-02T10:47:02.577Z,36.00
2017-07-02T10:49:31.155Z,36.17
2017-07-02T10:52:00.491Z,40.60
2017-07-02T10:54:29.442Z,35.83
2017-07-02T10:56:58.747Z,36.47
2017-07-02T10:59:28.307Z,41.03
2017-07-02T11:01:56.535Z,46.47
2017-07-02T11:04:25.875Z,37.40
2017-07-02T11:06:54.523Z,38.47
2017-07-02T11:22:21.807Z,38.30
2017-07-02T11:24:49.898Z,41.43
2017-07-02T11:27:19.655Z,42.50
2017-07-02T11:29:49.091Z,44.63
2017-07-02T11:32:24.275Z,44.37
2017-07-02T11:34:52.371Z,44.83
2017-07-02T11:37:21.920Z,48.27
2017-07-02T11:39:50.508Z,54.83
2017-07-02T11:42:19.575Z,46.87
2017-07-02T11:44:48.279Z,48.53
2017-07-02T11:47:16.827Z,51.50
2017-07-02T11:49:46.528Z,53.27
2017-07-02T11:52:15.283Z,52.00
2017-07-02T11:54:43.914Z,55.93
2017-07-02T11:57:13.523Z,56.33
2017-07-02T11:59:42.906Z,55.53
2017-07-02T12:02:11.750Z,55.00
2017-07-02T12:04:40.415Z,56.60
2017-07-02T12:07:09.995Z,59.20
2017-07-02T12:09:38.496Z,59.50
2017-07-02T12:12:08.039Z,60.37
2017-07-02T12:14:36.847Z,63.90
2017-07-02T12:17:05.420Z,69.17
2017-07-02T12:19:34.166Z,65.67
2017-07-02T12:22:03.579Z,67.67
2017-07-02T12:24:31.711Z,66.37
2017-07-02T12:27:00.139Z,70.40
2017-07-02T12:29:29.715Z,70.43
2017-07-02T12:31:57.983Z,70.27
2017-07-02T12:34:26.238Z,73.40
2017-07-02T12:36:55.011Z,74.23
2017-07-02T12:39:23.768Z,70.57
2017-07-02T12:41:53.191Z,73.63
2017-07-02T12:44:22.187Z,75.00
2017-07-02T12:46:51.183Z,75.60
2017-07-02T12:49:20.244Z,75.50
2017-07-02T12:51:49.089Z,75.43
2017-07-02T12:54:17.975Z,75.80
2017-07-02T12:56:46.656Z,72.90
2017-07-02T12:59:15.315Z,72.57
2017-07-02T13:01:43.439Z,69.30
2017-07-02T13:04:12.099Z,70.27
2017-07-02T13:06:40.809Z,71.53
2017-07-02T13:09:09.567Z,68.13
2017-07-02T13:11:37.839Z,66.93
2017-07-02T13:14:07.376Z,71.37
2017-07-02T13:16:36.179Z,71.50
2017-07-02T13:19:04.827Z,70.90
2017-07-02T13:21:33.402Z,70.53
2017-07-02T13:24:02.799Z,71.37
2017-07-02T13:26:32.530Z,66.33
2017-07-02T13:29:00.647Z,67.53
2017-07-02T13:31:29.290Z,64.50
2017-07-02T13:33:58.183Z,67.40
2017-07-02T13:36:26.887Z,67.87
2017-07-02T13:38:54.963Z,68.43
2017-07-02T13:41:23.859Z,69.87
2017-07-02T13:43:52.627Z,70.87
2017-07-02T13:46:21.194Z,72.80
2017-07-02T13:48:50.923Z,72.13
2017-07-02T13:51:18.999Z,66.47
2017-07-02T13:53:47.579Z,64.83
2017-07-02T13:56:17.107Z,65.30
2017-07-02T13:58:45.859Z,65.13
2017-07-02T14:01:15.255Z,65.73
2017-07-02T14:03:44.848Z,67.50
2017-07-02T14:06:12.920Z,67.07
2017-07-02T14:08:41.067Z,68.10
2017-07-02T14:11:09.718Z,65.60
2017-07-02T14:13:38.291Z,67.40
2017-07-02T14:16:07.631Z,61.50
2017-07-02T14:18:36.486Z,66.17
2017-07-02T14:21:05.887Z,65.90
2017-07-02T14:23:34.015Z,66.67
2017-07-02T14:26:02.986Z,67.57
2017-07-02T14:28:31.535Z,67.73
2017-07-02T14:31:01.097Z,68.17
2017-07-02T14:33:29.847Z,65.30
2017-07-02T14:35:59.355Z,64.87
2017-07-02T14:38:28.168Z,77.43
2017-07-02T14:40:56.883Z,66.97
2017-07-02T14:43:25.543Z,68.13
2017-07-02T14:45:54.210Z,65.20
2017-07-02T14:48:23.099Z,65.07
2017-07-02T14:50:51.909Z,67.70
2017-07-02T14:53:20.028Z,65.17
2017-07-02T14:55:48.946Z,62.03
2017-07-02T14:58:18.387Z,67.00
2017-07-02T15:00:47.031Z,67.80
2017-07-02T15:03:16.447Z,66.73
2017-07-02T15:05:44.615Z,69.33
2017-07-02T15:08:14.020Z,64.90
2017-07-02T15:10:43.495Z,71.63
2017-07-02T15:13:11.663Z,65.13
2017-07-02T15:15:40.437Z,73.03
2017-07-02T15:18:08.676Z,75.40
2017-07-02T15:20:36.855Z,74.60
2017-07-02T15:23:05.418Z,67.07
2017-07-02T15:25:34.214Z,66.37
2017-07-02T15:28:03.515Z,66.90
2017-07-02T15:30:33.155Z,66.73
2017-07-02T15:33:01.842Z,79.10
2017-07-02T15:35:29.959Z,66.17
2017-07-02T15:37:58.724Z,65.27
2017-07-02T15:40:27.371Z,67.47
2017-07-02T15:42:56.947Z,68.10
2017-07-02T15:45:26.005Z,70.70
2017-07-02T15:47:54.991Z,68.73
2017-07-02T15:50:23.540Z,68.77
2017-07-02T15:52:52.895Z,64.47
2017-07-02T15:55:21.665Z,65.63
2017-07-02T15:57:50.323Z,65.43
2017-07-02T16:00:19.515Z,72.40
2017-07-02T16:02:49.312Z,76.23
2017-07-02T16:05:18.155Z,68.60
2017-07-02T16:07:46.705Z,73.00
2017-07-02T16:10:16.403Z,71.23
2017-07-02T16:12:45.138Z,69.47
2017-07-02T16:15:13.591Z,68.10
2017-07-02T16:17:42.959Z,67.17
2017-07-02T16:20:11.679Z,69.20
2017-07-02T16:22:41.239Z,70.67
2017-07-02T16:25:09.852Z,66.97
2017-07-02T16:27:38.563Z,69.63
2017-07-02T16:30:07.962Z,70.17
2017-07-02T16:32:37.796Z,72.67
2017-07-02T16:35:06.603Z,73.23
2017-07-02T16:37:35.156Z,72.77
2017-07-02T16:40:03.407Z,74.37
2017-07-02T16:42:31.910Z,74.80
2017-07-02T16:45:01.451Z,72.80
2017-07-02T16:47:30.175Z,71.40
2017-07-02T16:49:58.739Z,72.60
2017-07-02T16:52:26.867Z,71.53
2017-07-02T16:54:55.143Z,70.17
2017-07-02T16:57:24.607Z,73.97
2017-07-02T16:59:53.239Z,67.87
2017-07-02T17:02:21.451Z,68.53
2017-07-02T17:04:50.559Z,66.53
2017-07-02T17:07:18.719Z,63.00
2017-07-02T17:09:47.575Z,64.87
2017-07-02T17:12:17.021Z,64.47
2017-07-02T17:14:45.669Z,65.87
2017-07-02T17:17:15.151Z,67.00
2017-07-02T17:19:43.759Z,66.37
2017-07-02T17:22:13.103Z,68.83
2017-07-02T17:24:41.347Z,69.27
2017-07-02T17:27:10.744Z,70.37
2017-07-02T17:29:38.919Z,67.73
2017-07-02T17:32:08.543Z,74.43
2017-07-02T17:34:37.246Z,75.30
2017-07-02T17:37:05.794Z,71.17
2017-07-02T17:39:35.492Z,71.90
2017-07-02T17:42:03.991Z,68.10
2017-07-02T17:44:33.532Z,72.17
2017-07-02T17:47:02.195Z,70.50
2017-07-02T17:49:30.488Z,72.60
2017-07-02T17:51:59.232Z,74.70
2017-07-02T17:54:27.447Z,71.47
2017-07-02T17:56:56.019Z,69.50
2017-07-02T17:59:25.255Z,72.37
2017-07-02T18:01:54.040Z,70.17
2017-07-02T18:04:22.766Z,74.63
2017-07-02T18:06:51.375Z,70.93
2017-07-02T18:09:19.675Z,65.73
2017-07-02T18:11:48.379Z,67.03
2017-07-02T18:14:16.988Z,69.07
2017-07-02T18:16:45.759Z,66.77
2017-07-02T18:19:13.951Z,70.43
2017-07-02T18:21:42.545Z,66.67
2017-07-02T18:24:10.786Z,63.67
2017-07-02T18:26:38.897Z,63.97
2017-07-02T18:29:07.617Z,61.80
2017-07-02T18:31:37.104Z,60.50
2017-07-02T18:34:05.715Z,60.87
2017-07-02T18:36:35.007Z,50.90
2017-07-02T18:39:03.363Z,52.10
2017-07-02T18:41:32.259Z,47.23
2017-07-02T18:44:01.105Z,49.07
2017-07-02T18:46:29.770Z,45.87
2017-07-02T18:48:59.242Z,46.80
2017-07-02T18:51:27.984Z,42.43
2017-07-02T18:53:56.752Z,45.07
2017-07-02T18:56:26.288Z,39.50
2017-07-02T18:58:54.907Z,41.47
2017-07-02T19:01:23.199Z,40.97
2017-07-02T19:03:51.879Z,46.37
2017-07-02T19:06:20.424Z,35.43
2017-07-02T19:08:49.275Z,34.20
2017-07-02T19:11:18.675Z,46.07
2017-07-02T19:13:48.267Z,33.80
2017-07-02T19:16:17.260Z,40.97
2017-07-02T19:18:45.759Z,56.63
2017-07-02T19:21:15.306Z,34.00
2017-07-02T19:23:44.047Z,35.80
2017-07-02T19:26:12.690Z,49.80
2017-07-02T19:28:41.335Z,39.43
2017-07-02T19:31:10.819Z,38.60
2017-07-02T19:33:39.427Z,46.40
2017-07-02T19:36:08.874Z,39.70
2017-07-02T19:38:37.722Z,44.97
2017-07-02T19:41:07.083Z,46.50
2017-07-02T19:43:35.709Z,41.13
2017-07-02T19:46:03.948Z,41.57
2017-07-02T19:48:32.511Z,39.67
2017-07-02T19:51:01.159Z,38.47
2017-07-02T19:53:30.679Z,43.93
2017-07-02T19:55:59.253Z,39.23
2017-07-02T19:58:28.653Z,44.43
2017-07-02T20:00:58.379Z,32.07
2017-07-02T20:03:27.084Z,38.13
2017-07-02T20:05:55.704Z,37.10
2017-07-02T20:08:24.464Z,39.00
2017-07-02T20:10:53.115Z,41.03
2017-07-02T20:13:22.719Z,41.13
2017-07-02T20:15:52.555Z,44.10
2017-07-02T20:18:21.507Z,47.33
2017-07-02T20:20:50.060Z,45.43
2017-07-02T20:23:18.839Z,45.27
2017-07-02T20:25:47.403Z,52.50
2017-07-02T20:28:16.295Z,56.73
2017-07-02T20:30:44.516Z,50.90
2017-07-02T20:33:13.243Z,46.20
2017-07-02T20:35:42.548Z,53.87
2017-07-02T20:38:12.376Z,47.73
2017-07-02T20:40:40.508Z,55.40
2017-07-02T20:43:09.239Z,51.80
2017-07-02T20:45:38.232Z,53.13
2017-07-02T20:48:06.982Z,52.50
2017-07-02T20:50:35.491Z,49.70
2017-07-02T20:53:05.320Z,45.27
2017-07-02T20:55:34.171Z,45.00
2017-07-02T20:58:02.916Z,44.83
2017-07-02T21:00:31.175Z,46.77
2017-07-02T21:02:59.342Z,51.63
2017-07-02T21:05:27.914Z,47.57
2017-07-02T21:07:57.464Z,58.37
2017-07-02T21:10:25.556Z,67.03
2017-07-02T21:12:54.303Z,62.63
2017-07-02T21:15:22.583Z,56.73
2017-07-02T21:17:51.186Z,58.17
2017-07-02T21:20:19.839Z,52.17
2017-07-02T21:22:49.426Z,55.03
2017-07-02T21:25:18.031Z,57.97
2017-07-02T21:27:47.335Z,50.87
2017-07-02T21:30:17.075Z,64.67
2017-07-02T21:32:45.681Z,65.77
2017-07-02T21:35:13.935Z,69.90
2017-07-02T21:37:42.800Z,61.37
2017-07-02T21:40:12.208Z,62.67
2017-07-02T21:42:41.503Z,65.90
2017-07-02T21:45:11.196Z,59.97
2017-07-02T21:47:39.759Z,67.87
2017-07-02T21:50:08.279Z,74.67
2017-07-02T21:52:36.499Z,69.73
2017-07-02T21:55:05.085Z,60.40
2017-07-02T21:57:33.831Z,69.47
2017-07-02T22:00:03.418Z,61.70
2017-07-02T22:02:32.027Z,63.77
2017-07-02T22:05:01.426Z,77.07
2017-07-02T22:07:31.120Z,70.83
2017-07-02T22:09:59.623Z,66.87
2017-07-02T22:12:29.163Z,65.73
2017-07-02T22:14:57.829Z,66.23
2017-07-02T22:17:26.404Z,69.77
2017-07-02T22:19:55.859Z,62.50
2017-07-02T22:22:24.155Z,64.83
2017-07-02T22:24:52.850Z,65.10
2017-07-02T22:27:21.420Z,65.53
2017-07-02T22:29:50.184Z,65.47
2017-07-02T22:32:18.836Z,69.30
2017-07-02T22:34:48.180Z,69.47
2017-07-02T22:37:16.443Z,77.17
2017-07-02T22:39:45.339Z,80.53
2017-07-02T22:42:14.232Z,81.33
2017-07-02T22:44:42.895Z,81.67
2017-07-02T22:47:12.471Z,91.00
2017-07-02T22:49:41.233Z,88.87
2017-07-02T22:52:09.881Z,87.87
2017-07-02T22:54:39.456Z,90.93
2017-07-02T22:57:07.854Z,93.87
2017-07-02T22:59:36.267Z,93.80
2017-07-02T23:02:04.447Z,90.00
2017-07-02T23:04:33.107Z,87.90
2017-07-02T23:07:01.439Z,92.73
2017-07-02T23:09:30.221Z,94.30
2017-07-02T23:11:58.852Z,99.10
2017-07-02T23:14:28.440Z,96.63
2017-07-02T23:16:56.567Z,96.43
2017-07-02T23:19:25.265Z,101.80
2017-07-02T23:21:54.131Z,97.37
2017-07-02T23:37:21.407Z,92.90
2017-07-02T23:39:49.558Z,88.93
2017-07-02T23:42:18.023Z,88.10
2017-07-02T23:44:47.608Z,86.00
2017-07-02T23:47:16.108Z,88.17
2017-07-02T23:49:44.267Z,81.77
2017-07-02T23:52:13.260Z,79.63
2017-07-02T23:54:42.207Z,79.30
2017-07-02T23:57:10.715Z,84.57
2017-07-02T23:59:39.566Z,89.20
